Parker, Idaho
Current Conditions -  °F | °C
As of 11:53 AM on Thursday 23 Oct 2014 (Local Time) from KRXE Reporting Station
Overcast Overcast  
Wind Chill: 51°   Ceiling: 11000
Heat Index: 51°   Visibility: 10mi
Dew Point: 29°   Wind: 5mph
Humidity: 43%   Direction: 280°W
Pressure: 30.14"   Gusts: NA
Location:  43.96°N, 111.76°W
Report Text: KRXE 231753Z AUTO 28004KT 10SM OVC110 11/M02 A3014 RMK AO2 SLP207 T01061017 10117 20033 51007
Loading
Personal Weather Stations






























Interactive Weather Map
Tropical Storm Tracking
New forecast layout! Learn more

10-Day Weather Forecast

Advertisements
Track Severe Weather on mobile